createdAt,value
2023-04-12T05:44:47.441Z,9.70
2023-04-12T05:47:34.635Z,9.70
2023-04-12T05:50:21.067Z,9.22
2023-04-12T05:53:07.101Z,9.43
2023-04-12T05:55:54.376Z,9.62
2023-04-12T05:58:39.669Z,9.86
2023-04-12T06:01:35.152Z,10.13
2023-04-12T06:04:21.165Z,10.31
2023-04-12T06:07:10.316Z,10.49
2023-04-12T06:09:57.128Z,10.71
2023-04-12T06:12:46.348Z,11.02
2023-04-12T06:15:32.260Z,11.18
2023-04-12T06:18:19.954Z,11.43
2023-04-12T06:21:05.648Z,11.98
2023-04-12T06:23:51.216Z,12.38
2023-04-12T06:26:40.132Z,12.60
2023-04-12T06:29:26.218Z,12.71
2023-04-12T06:32:14.049Z,12.62
2023-04-12T06:34:59.408Z,12.05
2023-04-12T06:37:44.708Z,11.78
2023-04-12T06:40:34.667Z,11.89
2023-04-12T06:43:20.555Z,11.68
2023-04-12T06:46:06.751Z,11.72
2023-04-12T06:48:57.103Z,11.55
2023-04-12T06:51:45.292Z,11.54
2023-04-12T06:54:37.826Z,11.54
2023-04-12T06:57:24.050Z,11.59
2023-04-12T07:00:10.652Z,11.65
2023-04-12T07:02:58.527Z,11.77
2023-04-12T07:05:44.042Z,11.99
2023-04-12T07:08:30.220Z,12.01
2023-04-12T07:11:21.453Z,12.05
2023-04-12T07:14:07.428Z,12.48
2023-04-12T07:16:52.804Z,12.46
2023-04-12T07:19:53.029Z,12.30
2023-04-12T07:22:39.425Z,12.44
2023-04-12T07:25:26.709Z,12.42
2023-04-12T07:28:12.045Z,12.52
2023-04-12T07:30:58.491Z,12.75
2023-04-12T07:33:44.223Z,12.71
2023-04-12T07:36:29.801Z,12.80
2023-04-12T07:39:15.296Z,12.85
2023-04-12T07:42:04.883Z,13.01
2023-04-12T07:44:50.611Z,12.84
2023-04-12T07:47:37.834Z,13.03
2023-04-12T07:50:23.162Z,13.17
2023-04-12T07:53:23.018Z,13.30
2023-04-12T07:56:08.999Z,13.45
2023-04-12T07:58:57.546Z,13.53
2023-04-12T08:01:43.408Z,13.68
2023-04-12T08:04:29.151Z,13.84
2023-04-12T08:07:14.821Z,14.24
2023-04-12T08:10:06.061Z,14.14
2023-04-12T08:12:51.482Z,14.41
2023-04-12T08:15:37.932Z,14.48
2023-04-12T08:18:26.689Z,14.60
2023-04-12T08:21:13.189Z,14.42
2023-04-12T08:23:58.676Z,14.56
2023-04-12T08:26:44.459Z,14.75
2023-04-12T08:29:29.962Z,15.06
2023-04-12T08:32:16.700Z,15.04
2023-04-12T08:35:02.922Z,15.39
2023-04-12T08:37:50.025Z,15.64
2023-04-12T08:40:35.813Z,15.97
2023-04-12T08:43:22.834Z,16.51
2023-04-12T08:46:09.079Z,18.96
2023-04-12T08:48:54.918Z,25.76
2023-04-12T08:51:44.908Z,28.33
2023-04-12T08:54:31.659Z,29.04
2023-04-12T08:57:18.808Z,30.97
2023-04-12T09:00:05.390Z,30.61
2023-04-12T09:02:51.330Z,33.32
2023-04-12T09:05:37.079Z,33.59
2023-04-12T09:08:26.221Z,32.73
2023-04-12T09:11:29.198Z,31.16
2023-04-12T09:14:25.852Z,31.25
2023-04-12T09:17:34.007Z,33.30
2023-04-12T09:20:21.875Z,33.45
2023-04-12T09:23:20.142Z,32.09
2023-04-12T09:26:06.816Z,33.85
2023-04-12T09:28:52.195Z,35.14
2023-04-12T09:31:38.867Z,35.81
2023-04-12T09:34:31.588Z,36.28
2023-04-12T09:37:18.385Z,34.82
2023-04-12T09:40:06.225Z,36.07
2023-04-12T09:42:53.862Z,34.62
2023-04-12T09:45:42.017Z,36.57
2023-04-12T09:48:28.903Z,38.63
2023-04-12T09:51:24.530Z,37.72
2023-04-12T09:54:12.154Z,37.48
2023-04-12T09:56:57.680Z,37.21
2023-04-12T09:59:49.831Z,39.25
2023-04-12T10:02:35.856Z,39.45
2023-04-12T10:05:23.846Z,39.57
2023-04-12T10:08:12.057Z,40.15
2023-04-12T10:10:58.500Z,39.22
2023-04-12T10:13:44.572Z,38.70
2023-04-12T10:16:31.216Z,41.22
2023-04-12T10:19:17.626Z,39.28
2023-04-12T10:22:03.045Z,37.85
2023-04-12T10:24:49.370Z,38.38
2023-04-12T10:27:34.983Z,39.47
2023-04-12T10:30:25.947Z,38.30
2023-04-12T10:33:13.655Z,38.56
2023-04-12T10:36:03.699Z,38.13
2023-04-12T10:39:10.102Z,39.18
2023-04-12T10:42:24.945Z,35.19
2023-04-12T10:45:35.447Z,34.72
2023-04-12T10:48:38.186Z,39.79
2023-04-12T10:51:27.160Z,38.90
2023-04-12T10:54:17.239Z,40.99
2023-04-12T10:57:06.842Z,38.53
2023-04-12T11:00:03.242Z,36.99
2023-04-12T11:03:09.813Z,38.38
2023-04-12T11:06:19.645Z,38.70
2023-04-12T11:09:22.399Z,37.66
2023-04-12T11:12:10.966Z,37.55
2023-04-12T11:15:01.413Z,39.40
2023-04-12T11:17:54.588Z,39.70
2023-04-12T11:20:41.012Z,40.46
2023-04-12T11:23:27.248Z,40.48
2023-04-12T11:26:12.871Z,41.54
2023-04-12T11:29:02.079Z,39.97
2023-04-12T11:31:50.160Z,41.69
2023-04-12T11:34:37.028Z,41.79
2023-04-12T11:37:23.223Z,41.22
2023-04-12T11:40:09.644Z,40.45
2023-04-12T11:42:57.854Z,38.81
2023-04-12T11:45:44.846Z,39.59
2023-04-12T11:48:30.628Z,38.04
2023-04-12T11:51:31.617Z,37.49
2023-04-12T11:54:17.774Z,36.46
2023-04-12T11:57:05.038Z,38.34
2023-04-12T11:59:52.310Z,38.45
2023-04-12T12:02:46.088Z,39.95
2023-04-12T12:05:37.455Z,38.95
2023-04-12T12:08:24.485Z,39.58
2023-04-12T12:11:10.108Z,39.40
2023-04-12T12:13:56.938Z,39.20
2023-04-12T12:16:42.591Z,39.13
2023-04-12T12:19:29.454Z,35.22
2023-04-12T12:22:20.807Z,36.98
2023-04-12T12:25:06.955Z,36.63
2023-04-12T12:27:57.292Z,35.97
2023-04-12T12:30:42.663Z,34.77
2023-04-12T12:33:45.862Z,32.27
2023-04-12T12:36:34.179Z,33.68
